sensor_id;sensor_type;location;lat;lon;timestamp;pressure;altitude;pressure_sealevel;temperature;humidity
49367;BME280;35245;52.026;8.540;2023-01-28T00:01:57;51090.00;;;-145.42;100.00
49367;BME280;35245;52.026;8.540;2023-01-28T00:04:26;51115.75;;;-145.42;100.00
49367;BME280;35245;52.026;8.540;2023-01-28T00:06:53;51151.44;;;-145.42;100.00
49367;BME280;35245;52.026;8.540;2023-01-28T00:09:20;51137.56;;;-145.42;100.00
49367;BME280;35245;52.026;8.540;2023-01-28T00:11:47;51131.63;;;-145.42;100.00
49367;BME280;35245;52.026;8.540;2023-01-28T00:14:14;51121.72;;;-145.42;100.00
49367;BME280;35245;52.026;8.540;2023-01-28T00:16:42;51115.75;;;-145.42;100.00
49367;BME280;35245;52.026;8.540;2023-01-28T00:19:09;51139.56;;;-145.42;100.00
49367;BME280;35245;52.026;8.540;2023-01-28T00:21:38;51151.44;;;-145.42;100.00
49367;BME280;35245;52.026;8.540;2023-01-28T00:24:05;51169.28;;;-145.42;100.00
49367;BME280;35245;52.026;8.540;2023-01-28T00:26:35;51129.63;;;-145.42;100.00
49367;BME280;35245;52.026;8.540;2023-01-28T00:29:02;51129.63;;;-145.42;100.00
49367;BME280;35245;52.026;8.540;2023-01-28T00:31:29;51103.88;;;-145.42;100.00
49367;BME280;35245;52.026;8.540;2023-01-28T00:33:57;51141.53;;;-145.42;100.00
49367;BME280;35245;52.026;8.540;2023-01-28T00:36:25;51135.59;;;-145.42;100.00
49367;BME280;35245;52.026;8.540;2023-01-28T00:38:56;51123.69;;;-145.42;100.00
49367;BME280;35245;52.026;8.540;2023-01-28T00:41:25;51119.72;;;-145.42;100.00
49367;BME280;35245;52.026;8.540;2023-01-28T00:43:53;51129.63;;;-145.42;100.00
49367;BME280;35245;52.026;8.540;2023-01-28T00:46:21;51169.28;;;-145.42;100.00
49367;BME280;35245;52.026;8.540;2023-01-28T00:48:51;51145.50;;;-145.42;100.00
49367;BME280;35245;52.026;8.540;2023-01-28T00:51:20;51107.84;;;-145.42;100.00
49367;BME280;35245;52.026;8.540;2023-01-28T00:53:47;51157.38;;;-145.42;100.00
49367;BME280;35245;52.026;8.540;2023-01-28T00:56:17;51117.75;;;-145.42;100.00
49367;BME280;35245;52.026;8.540;2023-01-28T00:58:44;51131.63;;;-145.42;100.00
49367;BME280;35245;52.026;8.540;2023-01-28T01:01:15;51113.78;;;-145.42;100.00
49367;BME280;35245;52.026;8.540;2023-01-28T01:03:43;51127.66;;;-145.42;100.00
49367;BME280;35245;52.026;8.540;2023-01-28T01:06:13;51129.63;;;-145.42;100.00
49367;BME280;35245;52.026;8.540;2023-01-28T01:08:41;51149.47;;;-145.42;100.00
49367;BME280;35245;52.026;8.540;2023-01-28T01:11:17;51145.50;;;-145.42;100.00
49367;BME280;35245;52.026;8.540;2023-01-28T01:13:48;51123.69;;;-145.42;100.00
49367;BME280;35245;52.026;8.540;2023-01-28T01:16:16;51139.56;;;-145.42;100.00
49367;BME280;35245;52.026;8.540;2023-01-28T01:18:43;51139.56;;;-145.42;100.00
49367;BME280;35245;52.026;8.540;2023-01-28T01:21:13;51101.88;;;-145.42;100.00
49367;BME280;35245;52.026;8.540;2023-01-28T01:23:42;51117.75;;;-145.42;100.00
49367;BME280;35245;52.026;8.540;2023-01-28T01:26:10;51109.81;;;-145.42;100.00
49367;BME280;35245;52.026;8.540;2023-01-28T01:28:39;51121.72;;;-145.42;100.00
49367;BME280;35245;52.026;8.540;2023-01-28T01:31:10;51141.53;;;-145.42;100.00
49367;BME280;35245;52.026;8.540;2023-01-28T01:33:39;51121.72;;;-145.42;100.00
49367;BME280;35245;52.026;8.540;2023-01-28T01:36:10;51149.47;;;-145.42;100.00
49367;BME280;35245;52.026;8.540;2023-01-28T01:38:38;51141.53;;;-145.42;100.00
49367;BME280;35245;52.026;8.540;2023-01-28T01:41:07;51139.56;;;-145.42;100.00
49367;BME280;35245;52.026;8.540;2023-01-28T01:43:50;51157.38;;;-145.42;100.00
49367;BME280;35245;52.026;8.540;2023-01-28T01:46:22;51133.59;;;-145.42;100.00
49367;BME280;35245;52.026;8.540;2023-01-28T01:48:50;51141.53;;;-145.42;100.00
49367;BME280;35245;52.026;8.540;2023-01-28T01:51:22;51163.34;;;-145.42;100.00
49367;BME280;35245;52.026;8.540;2023-01-28T01:53:52;51159.38;;;-145.42;100.00
49367;BME280;35245;52.026;8.540;2023-01-28T01:56:25;51157.38;;;-145.42;100.00
49367;BME280;35245;52.026;8.540;2023-01-28T01:58:55;51139.56;;;-145.42;100.00
49367;BME280;35245;52.026;8.540;2023-01-28T02:01:27;51155.41;;;-145.42;100.00
49367;BME280;35245;52.026;8.540;2023-01-28T02:04:02;51147.47;;;-145.42;100.00
49367;BME280;35245;52.026;8.540;2023-01-28T02:06:30;51159.38;;;-145.42;100.00
49367;BME280;35245;52.026;8.540;2023-01-28T02:08:58;51151.44;;;-145.42;100.00
49367;BME280;35245;52.026;8.540;2023-01-28T02:11:29;51143.50;;;-145.42;100.00
49367;BME280;35245;52.026;8.540;2023-01-28T02:14:02;51147.47;;;-145.42;100.00
49367;BME280;35245;52.026;8.540;2023-01-28T02:16:31;51145.50;;;-145.42;100.00
49367;BME280;35245;52.026;8.540;2023-01-28T02:18:59;51187.13;;;-145.42;100.00
49367;BME280;35245;52.026;8.540;2023-01-28T02:22:05;51141.53;;;-145.42;100.00
49367;BME280;35245;52.026;8.540;2023-01-28T02:28:14;51169.28;;;-145.42;100.00
49367;BME280;35245;52.026;8.540;2023-01-28T02:30:49;51149.47;;;-145.42;100.00
49367;BME280;35245;52.026;8.540;2023-01-28T02:33:26;51151.44;;;-145.42;100.00
49367;BME280;35245;52.026;8.540;2023-01-28T02:35:55;51147.47;;;-145.42;100.00
49367;BME280;35245;52.026;8.540;2023-01-28T02:38:27;51173.25;;;-145.42;100.00
49367;BME280;35245;52.026;8.540;2023-01-28T02:41:01;51147.47;;;-145.42;100.00
49367;BME280;35245;52.026;8.540;2023-01-28T02:43:35;51151.44;;;-145.42;100.00
49367;BME280;35245;52.026;8.540;2023-01-28T02:46:14;51177.22;;;-145.42;100.00
49367;BME280;35245;52.026;8.540;2023-01-28T02:49:00;51157.38;;;-145.42;100.00
49367;BME280;35245;52.026;8.540;2023-01-28T02:51:44;51173.25;;;-145.42;100.00
49367;BME280;35245;52.026;8.540;2023-01-28T02:54:22;51153.44;;;-145.42;100.00
49367;BME280;35245;52.026;8.540;2023-01-28T02:57:05;51151.44;;;-145.42;100.00
49367;BME280;35245;52.026;8.540;2023-01-28T02:59:44;51147.47;;;-145.42;100.00
49367;BME280;35245;52.026;8.540;2023-01-28T03:02:22;51149.47;;;-145.42;100.00
49367;BME280;35245;52.026;8.540;2023-01-28T03:04:57;51149.47;;;-145.42;100.00
49367;BME280;35245;52.026;8.540;2023-01-28T03:07:29;51151.44;;;-145.42;100.00
49367;BME280;35245;52.026;8.540;2023-01-28T03:09:58;51151.44;;;-145.42;100.00
49367;BME280;35245;52.026;8.540;2023-01-28T03:12:31;51171.28;;;-145.42;100.00
49367;BME280;35245;52.026;8.540;2023-01-28T03:15:21;51153.44;;;-145.42;100.00
49367;BME280;35245;52.026;8.540;2023-01-28T03:18:10;51137.56;;;-145.42;100.00
49367;BME280;35245;52.026;8.540;2023-01-28T03:21:01;51159.38;;;-145.42;100.00
49367;BME280;35245;52.026;8.540;2023-01-28T03:23:54;51145.50;;;-145.42;100.00
49367;BME280;35245;52.026;8.540;2023-01-28T03:26:46;51165.31;;;-145.42;100.00
49367;BME280;35245;52.026;8.540;2023-01-28T03:29:34;51153.44;;;-145.42;100.00
49367;BME280;35245;52.026;8.540;2023-01-28T03:32:23;51131.63;;;-145.42;100.00
49367;BME280;35245;52.026;8.540;2023-01-28T03:35:10;51171.28;;;-145.42;100.00
49367;BME280;35245;52.026;8.540;2023-01-28T03:37:57;51195.06;;;-145.42;100.00
49367;BME280;35245;52.026;8.540;2023-01-28T03:40:26;51195.06;;;-145.42;100.00
49367;BME280;35245;52.026;8.540;2023-01-28T03:42:53;51143.50;;;-145.42;100.00
49367;BME280;35245;52.026;8.540;2023-01-28T03:45:21;51165.31;;;-145.42;100.00
49367;BME280;35245;52.026;8.540;2023-01-28T03:47:50;51173.25;;;-145.42;100.00
49367;BME280;35245;52.026;8.540;2023-01-28T03:50:17;51177.22;;;-145.42;100.00
49367;BME280;35245;52.026;8.540;2023-01-28T03:52:44;51187.13;;;-145.42;100.00
49367;BME280;35245;52.026;8.540;2023-01-28T03:55:11;51167.31;;;-145.42;100.00
49367;BME280;35245;52.026;8.540;2023-01-28T03:57:39;51193.06;;;-145.42;100.00
49367;BME280;35245;52.026;8.540;2023-01-28T04:00:08;51147.47;;;-145.42;100.00
49367;BME280;35245;52.026;8.540;2023-01-28T04:02:36;51195.06;;;-145.42;100.00
49367;BME280;35245;52.026;8.540;2023-01-28T04:05:08;51165.31;;;-145.42;100.00
49367;BME280;35245;52.026;8.540;2023-01-28T04:07:38;51201.00;;;-145.42;100.00
49367;BME280;35245;52.026;8.540;2023-01-28T04:10:07;51193.06;;;-145.42;100.00
49367;BME280;35245;52.026;8.540;2023-01-28T04:12:35;51181.19;;;-145.42;100.00
49367;BME280;35245;52.026;8.540;2023-01-28T04:15:05;51185.16;;;-145.42;100.00
49367;BME280;35245;52.026;8.540;2023-01-28T04:17:43;51175.22;;;-145.42;100.00
49367;BME280;35245;52.026;8.540;2023-01-28T04:20:13;51145.50;;;-145.42;100.00
49367;BME280;35245;52.026;8.540;2023-01-28T04:22:40;51169.28;;;-145.42;100.00
49367;BME280;35245;52.026;8.540;2023-01-28T04:25:08;51173.25;;;-145.42;100.00
49367;BME280;35245;52.026;8.540;2023-01-28T04:27:35;51149.47;;;-145.42;100.00
49367;BME280;35245;52.026;8.540;2023-01-28T04:30:04;51183.16;;;-145.42;100.00
49367;BME280;35245;52.026;8.540;2023-01-28T04:32:31;51189.09;;;-145.42;100.00
49367;BME280;35245;52.026;8.540;2023-01-28T04:34:58;51187.13;;;-145.42;100.00
49367;BME280;35245;52.026;8.540;2023-01-28T04:37:27;51195.06;;;-145.42;100.00
49367;BME280;35245;52.026;8.540;2023-01-28T04:39:54;51159.38;;;-145.42;100.00
49367;BME280;35245;52.026;8.540;2023-01-28T04:42:21;51189.09;;;-145.42;100.00
49367;BME280;35245;52.026;8.540;2023-01-28T04:44:48;51185.16;;;-145.42;100.00
49367;BME280;35245;52.026;8.540;2023-01-28T04:47:15;51157.38;;;-145.42;100.00
49367;BME280;35245;52.026;8.540;2023-01-28T04:49:44;51161.34;;;-145.42;100.00
49367;BME280;35245;52.026;8.540;2023-01-28T04:52:11;51197.03;;;-145.42;100.00
49367;BME280;35245;52.026;8.540;2023-01-28T04:54:40;51155.41;;;-145.42;100.00
49367;BME280;35245;52.026;8.540;2023-01-28T04:57:07;51177.22;;;-145.42;100.00
49367;BME280;35245;52.026;8.540;2023-01-28T04:59:34;51202.97;;;-145.42;100.00
49367;BME280;35245;52.026;8.540;2023-01-28T05:02:02;51175.22;;;-145.42;100.00
49367;BME280;35245;52.026;8.540;2023-01-28T05:04:29;51151.44;;;-145.42;100.00
49367;BME280;35245;52.026;8.540;2023-01-28T05:06:56;51175.22;;;-145.42;100.00
49367;BME280;35245;52.026;8.540;2023-01-28T05:09:23;51187.13;;;-145.42;100.00
49367;BME280;35245;52.026;8.540;2023-01-28T05:11:52;51157.38;;;-145.42;100.00
49367;BME280;35245;52.026;8.540;2023-01-28T05:14:19;51173.25;;;-145.42;100.00
49367;BME280;35245;52.026;8.540;2023-01-28T05:16:46;51177.22;;;-145.42;100.00
49367;BME280;35245;52.026;8.540;2023-01-28T05:19:13;51179.19;;;-145.42;100.00
49367;BME280;35245;52.026;8.540;2023-01-28T05:21:40;51185.16;;;-145.42;100.00
49367;BME280;35245;52.026;8.540;2023-01-28T05:24:08;51197.03;;;-145.42;100.00
49367;BME280;35245;52.026;8.540;2023-01-28T05:26:35;51173.25;;;-145.42;100.00
49367;BME280;35245;52.026;8.540;2023-01-28T05:29:04;51171.28;;;-145.42;100.00
49367;BME280;35245;52.026;8.540;2023-01-28T05:31:31;51155.41;;;-145.42;100.00
49367;BME280;35245;52.026;8.540;2023-01-28T05:33:58;51179.19;;;-145.42;100.00
49367;BME280;35245;52.026;8.540;2023-01-28T05:36:25;51187.13;;;-145.42;100.00
49367;BME280;35245;52.026;8.540;2023-01-28T05:38:53;51193.06;;;-145.42;100.00
49367;BME280;35245;52.026;8.540;2023-01-28T05:41:20;51177.22;;;-145.42;100.00
49367;BME280;35245;52.026;8.540;2023-01-28T05:43:47;51147.47;;;-145.42;100.00
49367;BME280;35245;52.026;8.540;2023-01-28T05:46:16;51187.13;;;-145.42;100.00
49367;BME280;35245;52.026;8.540;2023-01-28T05:48:43;51187.13;;;-145.42;100.00
49367;BME280;35245;52.026;8.540;2023-01-28T05:51:10;51187.13;;;-145.42;100.00
49367;BME280;35245;52.026;8.540;2023-01-28T05:53:37;51197.03;;;-145.42;100.00
49367;BME280;35245;52.026;8.540;2023-01-28T05:56:06;51157.38;;;-145.42;100.00
49367;BME280;35245;52.026;8.540;2023-01-28T05:58:33;51175.22;;;-145.42;100.00
49367;BME280;35245;52.026;8.540;2023-01-28T06:01:00;51179.19;;;-145.42;100.00
49367;BME280;35245;52.026;8.540;2023-01-28T06:03:29;51161.34;;;-145.42;100.00
49367;BME280;35245;52.026;8.540;2023-01-28T06:05:56;51187.13;;;-145.42;100.00
49367;BME280;35245;52.026;8.540;2023-01-28T06:08:23;51171.28;;;-145.42;100.00
49367;BME280;35245;52.026;8.540;2023-01-28T06:10:51;51169.28;;;-145.42;100.00
49367;BME280;35245;52.026;8.540;2023-01-28T06:13:18;51191.09;;;-145.42;100.00
49367;BME280;35245;52.026;8.540;2023-01-28T06:15:48;51161.34;;;-145.42;100.00
49367;BME280;35245;52.026;8.540;2023-01-28T06:18:16;51185.16;;;-145.42;100.00
49367;BME280;35245;52.026;8.540;2023-01-28T06:20:44;51193.06;;;-145.42;100.00
49367;BME280;35245;52.026;8.540;2023-01-28T06:23:11;51161.34;;;-145.42;100.00
49367;BME280;35245;52.026;8.540;2023-01-28T06:25:38;51167.31;;;-145.42;100.00
49367;BME280;35245;52.026;8.540;2023-01-28T06:28:05;51193.06;;;-145.42;100.00
49367;BME280;35245;52.026;8.540;2023-01-28T06:30:33;51173.25;;;-145.42;100.00
49367;BME280;35245;52.026;8.540;2023-01-28T06:33:00;51181.19;;;-145.42;100.00
49367;BME280;35245;52.026;8.540;2023-01-28T06:35:27;51199.03;;;-145.42;100.00
49367;BME280;35245;52.026;8.540;2023-01-28T06:37:56;51191.09;;;-145.42;100.00
49367;BME280;35245;52.026;8.540;2023-01-28T06:40:23;51220.81;;;-145.42;100.00
49367;BME280;35245;52.026;8.540;2023-01-28T06:42:50;51173.25;;;-145.42;100.00
49367;BME280;35245;52.026;8.540;2023-01-28T06:45:18;51155.41;;;-145.42;100.00
49367;BME280;35245;52.026;8.540;2023-01-28T06:47:45;51165.31;;;-145.42;100.00
49367;BME280;35245;52.026;8.540;2023-01-28T06:50:12;51197.03;;;-145.42;100.00
49367;BME280;35245;52.026;8.540;2023-01-28T06:52:40;51202.97;;;-145.42;100.00
49367;BME280;35245;52.026;8.540;2023-01-28T06:55:09;51165.31;;;-145.42;100.00
49367;BME280;35245;52.026;8.540;2023-01-28T06:57:37;51161.34;;;-145.42;100.00
49367;BME280;35245;52.026;8.540;2023-01-28T07:00:06;51181.19;;;-145.42;100.00
49367;BME280;35245;52.026;8.540;2023-01-28T07:02:35;51159.38;;;-145.42;100.00
49367;BME280;35245;52.026;8.540;2023-01-28T07:05:03;51189.09;;;-145.42;100.00
49367;BME280;35245;52.026;8.540;2023-01-28T07:07:31;51159.38;;;-145.42;100.00
49367;BME280;35245;52.026;8.540;2023-01-28T07:09:58;51157.38;;;-145.42;100.00
49367;BME280;35245;52.026;8.540;2023-01-28T07:12:27;51187.13;;;-145.42;100.00
49367;BME280;35245;52.026;8.540;2023-01-28T07:14:54;51163.34;;;-145.42;100.00
49367;BME280;35245;52.026;8.540;2023-01-28T07:17:21;51159.38;;;-145.42;100.00
49367;BME280;35245;52.026;8.540;2023-01-28T07:19:48;51165.31;;;-145.42;100.00
49367;BME280;35245;52.026;8.540;2023-01-28T07:22:15;51143.50;;;-145.42;100.00
49367;BME280;35245;52.026;8.540;2023-01-28T07:24:43;51169.28;;;-145.42;100.00
49367;BME280;35245;52.026;8.540;2023-01-28T07:27:10;51157.38;;;-145.42;100.00
49367;BME280;35245;52.026;8.540;2023-01-28T07:29:38;51181.19;;;-145.42;100.00
49367;BME280;35245;52.026;8.540;2023-01-28T07:32:05;51175.22;;;-145.42;100.00
49367;BME280;35245;52.026;8.540;2023-01-28T07:34:33;51187.13;;;-145.42;100.00
49367;BME280;35245;52.026;8.540;2023-01-28T07:37:02;51161.34;;;-145.42;100.00
49367;BME280;35245;52.026;8.540;2023-01-28T07:39:29;51159.38;;;-145.42;100.00
49367;BME280;35245;52.026;8.540;2023-01-28T07:41:56;51165.31;;;-145.42;100.00
49367;BME280;35245;52.026;8.540;2023-01-28T07:44:23;51139.56;;;-145.42;100.00
49367;BME280;35245;52.026;8.540;2023-01-28T07:46:52;51145.50;;;-145.42;100.00
49367;BME280;35245;52.026;8.540;2023-01-28T07:49:19;51167.31;;;-145.42;100.00
49367;BME280;35245;52.026;8.540;2023-01-28T07:51:46;51173.25;;;-145.42;100.00
49367;BME280;35245;52.026;8.540;2023-01-28T07:54:15;51129.63;;;-145.42;100.00
49367;BME280;35245;52.026;8.540;2023-01-28T07:56:42;51145.50;;;-145.42;100.00
49367;BME280;35245;52.026;8.540;2023-01-28T07:59:10;51131.63;;;-145.42;100.00
49367;BME280;35245;52.026;8.540;2023-01-28T08:01:37;51187.13;;;-145.42;100.00
49367;BME280;35245;52.026;8.540;2023-01-28T08:04:06;51165.31;;;-145.42;100.00
49367;BME280;35245;52.026;8.540;2023-01-28T08:06:34;51157.38;;;-145.42;100.00
49367;BME280;35245;52.026;8.540;2023-01-28T08:09:03;51151.44;;;-145.42;100.00
49367;BME280;35245;52.026;8.540;2023-01-28T08:11:31;51143.50;;;-145.42;100.00
49367;BME280;35245;52.026;8.540;2023-01-28T08:13:58;51115.75;;;-145.42;100.00
49367;BME280;35245;52.026;8.540;2023-01-28T08:16:26;51161.34;;;-145.42;100.00
49367;BME280;35245;52.026;8.540;2023-01-28T08:18:54;51137.56;;;-145.42;100.00
49367;BME280;35245;52.026;8.540;2023-01-28T08:21:22;51123.69;;;-145.42;100.00
49367;BME280;35245;52.026;8.540;2023-01-28T08:23:49;51137.56;;;-145.42;100.00
49367;BME280;35245;52.026;8.540;2023-01-28T08:26:17;51141.53;;;-145.42;100.00
49367;BME280;35245;52.026;8.540;2023-01-28T08:28:44;51131.63;;;-145.42;100.00
49367;BME280;35245;52.026;8.540;2023-01-28T08:31:11;51155.41;;;-145.42;100.00
49367;BME280;35245;52.026;8.540;2023-01-28T08:33:38;51137.56;;;-145.42;100.00
49367;BME280;35245;52.026;8.540;2023-01-28T08:36:06;51139.56;;;-145.42;100.00
49367;BME280;35245;52.026;8.540;2023-01-28T08:38:35;51135.59;;;-145.42;100.00
49367;BME280;35245;52.026;8.540;2023-01-28T08:41:02;51139.56;;;-145.42;100.00
49367;BME280;35245;52.026;8.540;2023-01-28T08:43:29;51149.47;;;-145.42;100.00
49367;BME280;35245;52.026;8.540;2023-01-28T08:45:57;51173.25;;;-145.42;100.00
49367;BME280;35245;52.026;8.540;2023-01-28T08:48:24;51141.53;;;-145.42;100.00
49367;BME280;35245;52.026;8.540;2023-01-28T08:50:51;51133.59;;;-145.42;100.00
49367;BME280;35245;52.026;8.540;2023-01-28T08:53:19;51125.69;;;-145.42;100.00
49367;BME280;35245;52.026;8.540;2023-01-28T08:55:48;51165.31;;;-145.42;100.00
49367;BME280;35245;52.026;8.540;2023-01-28T08:58:16;51151.44;;;-145.42;100.00
49367;BME280;35245;52.026;8.540;2023-01-28T09:00:45;51129.63;;;-145.42;100.00
49367;BME280;35245;52.026;8.540;2023-01-28T09:03:12;51147.47;;;-145.42;100.00
49367;BME280;35245;52.026;8.540;2023-01-28T09:05:39;51145.50;;;-145.42;100.00
49367;BME280;35245;52.026;8.540;2023-01-28T09:08:09;51145.50;;;-145.42;100.00
49367;BME280;35245;52.026;8.540;2023-01-28T09:10:36;51161.34;;;-145.42;100.00
49367;BME280;35245;52.026;8.540;2023-01-28T09:13:07;51145.50;;;-145.42;100.00
49367;BME280;35245;52.026;8.540;2023-01-28T09:15:35;51167.31;;;-145.42;100.00
49367;BME280;35245;52.026;8.540;2023-01-28T09:18:02;51145.50;;;-145.42;100.00
49367;BME280;35245;52.026;8.540;2023-01-28T09:20:30;51149.47;;;-145.42;100.00
49367;BME280;35245;52.026;8.540;2023-01-28T09:22:58;51151.44;;;-145.42;100.00
49367;BME280;35245;52.026;8.540;2023-01-28T09:25:26;51161.34;;;-145.42;100.00
49367;BME280;35245;52.026;8.540;2023-01-28T09:27:53;51139.56;;;-145.42;100.00
49367;BME280;35245;52.026;8.540;2023-01-28T09:30:21;51133.59;;;-145.42;100.00
49367;BME280;35245;52.026;8.540;2023-01-28T09:32:50;51159.38;;;-145.42;100.00
49367;BME280;35245;52.026;8.540;2023-01-28T09:35:17;51157.38;;;-145.42;100.00
49367;BME280;35245;52.026;8.540;2023-01-28T09:37:44;51155.41;;;-145.42;100.00
49367;BME280;35245;52.026;8.540;2023-01-28T09:40:15;51157.38;;;-145.42;100.00
49367;BME280;35245;52.026;8.540;2023-01-28T09:43:04;51177.22;;;-145.42;100.00
49367;BME280;35245;52.026;8.540;2023-01-28T09:45:39;51171.28;;;-145.42;100.00
49367;BME280;35245;52.026;8.540;2023-01-28T09:48:13;51151.44;;;-145.42;100.00
49367;BME280;35245;52.026;8.540;2023-01-28T09:50:45;51157.38;;;-145.42;100.00
49367;BME280;35245;52.026;8.540;2023-01-28T09:53:17;51161.34;;;-145.42;100.00
49367;BME280;35245;52.026;8.540;2023-01-28T09:55:49;51167.31;;;-145.42;100.00
49367;BME280;35245;52.026;8.540;2023-01-28T09:58:17;51159.38;;;-145.42;100.00
49367;BME280;35245;52.026;8.540;2023-01-28T10:00:53;51157.38;;;-145.42;100.00
49367;BME280;35245;52.026;8.540;2023-01-28T10:03:47;51147.47;;;-145.42;100.00
49367;BME280;35245;52.026;8.540;2023-01-28T10:06:25;51143.50;;;-145.42;100.00
49367;BME280;35245;52.026;8.540;2023-01-28T10:09:24;51177.22;;;-145.42;100.00
49367;BME280;35245;52.026;8.540;2023-01-28T10:12:21;51161.34;;;-145.42;100.00
49367;BME280;35245;52.026;8.540;2023-01-28T10:15:15;51147.47;;;-145.42;100.00
49367;BME280;35245;52.026;8.540;2023-01-28T10:17:50;51149.47;;;-145.42;100.00
49367;BME280;35245;52.026;8.540;2023-01-28T10:20:23;51131.63;;;-145.42;100.00
49367;BME280;35245;52.026;8.540;2023-01-28T10:22:59;51141.53;;;-145.42;100.00
49367;BME280;35245;52.026;8.540;2023-01-28T10:25:30;51151.44;;;-145.42;100.00
49367;BME280;35245;52.026;8.540;2023-01-28T10:28:00;51125.69;;;-145.42;100.00
49367;BME280;35245;52.026;8.540;2023-01-28T10:30:31;51151.44;;;-145.42;100.00
49367;BME280;35245;52.026;8.540;2023-01-28T10:33:05;51149.47;;;-145.42;100.00
49367;BME280;35245;52.026;8.540;2023-01-28T10:35:39;51159.38;;;-145.42;100.00
49367;BME280;35245;52.026;8.540;2023-01-28T10:38:12;51167.31;;;-145.42;100.00
49367;BME280;35245;52.026;8.540;2023-01-28T10:40:40;51167.31;;;-145.42;100.00
49367;BME280;35245;52.026;8.540;2023-01-28T10:43:08;51177.22;;;-145.42;100.00
49367;BME280;35245;52.026;8.540;2023-01-28T10:45:51;51173.25;;;-145.42;100.00
49367;BME280;35245;52.026;8.540;2023-01-28T10:48:24;51165.31;;;-145.42;100.00
49367;BME280;35245;52.026;8.540;2023-01-28T10:50:54;51169.28;;;-145.42;100.00
49367;BME280;35245;52.026;8.540;2023-01-28T10:53:34;51165.31;;;-145.42;100.00
49367;BME280;35245;52.026;8.540;2023-01-28T10:56:04;51145.50;;;-145.42;100.00
49367;BME280;35245;52.026;8.540;2023-01-28T10:58:35;51151.44;;;-145.42;100.00
49367;BME280;35245;52.026;8.540;2023-01-28T11:01:05;51187.13;;;-145.42;100.00
49367;BME280;35245;52.026;8.540;2023-01-28T11:03:52;51179.19;;;-145.42;100.00
49367;BME280;35245;52.026;8.540;2023-01-28T11:06:25;51183.16;;;-145.42;100.00
49367;BME280;35245;52.026;8.540;2023-01-28T11:08:53;51155.41;;;-145.42;100.00
49367;BME280;35245;52.026;8.540;2023-01-28T11:11:25;51167.31;;;-145.42;100.00
49367;BME280;35245;52.026;8.540;2023-01-28T11:13:53;51202.97;;;-145.42;100.00
49367;BME280;35245;52.026;8.540;2023-01-28T11:16:24;51165.31;;;-145.42;100.00
49367;BME280;35245;52.026;8.540;2023-01-28T11:19:03;51171.28;;;-145.42;100.00
49367;BME280;35245;52.026;8.540;2023-01-28T11:21:32;51141.53;;;-145.42;100.00
49367;BME280;35245;52.026;8.540;2023-01-28T11:24:03;51159.38;;;-145.42;100.00
49367;BME280;35245;52.026;8.540;2023-01-28T11:26:35;51155.41;;;-145.42;100.00
49367;BME280;35245;52.026;8.540;2023-01-28T11:29:02;51161.34;;;-145.42;100.00
49367;BME280;35245;52.026;8.540;2023-01-28T11:31:38;51177.22;;;-145.42;100.00
49367;BME280;35245;52.026;8.540;2023-01-28T11:34:16;51161.34;;;-145.42;100.00
49367;BME280;35245;52.026;8.540;2023-01-28T11:36:50;51163.34;;;-145.42;100.00
49367;BME280;35245;52.026;8.540;2023-01-28T11:39:21;51147.47;;;-145.42;100.00
49367;BME280;35245;52.026;8.540;2023-01-28T11:41:51;51157.38;;;-145.42;100.00
49367;BME280;35245;52.026;8.540;2023-01-28T11:44:21;51153.44;;;-145.42;100.00
49367;BME280;35245;52.026;8.540;2023-01-28T11:47:21;51157.38;;;-145.42;100.00
49367;BME280;35245;52.026;8.540;2023-01-28T11:50:17;51161.34;;;-145.42;100.00
49367;BME280;35245;52.026;8.540;2023-01-28T11:52:59;51052.34;;;-145.42;100.00
49367;BME280;35245;52.026;8.540;2023-01-28T11:55:41;51050.34;;;-145.42;94.55
49367;BME280;35245;52.026;8.540;2023-01-28T11:58:22;51099.91;;;-145.42;86.85
49367;BME280;35245;52.026;8.540;2023-01-28T12:01:01;51125.69;;;-145.42;73.09
49367;BME280;35245;52.026;8.540;2023-01-28T12:03:50;51135.59;;;-145.42;70.47
49367;BME280;35245;52.026;8.540;2023-01-28T12:06:35;51151.44;;;-145.42;58.33
49367;BME280;35245;52.026;8.540;2023-01-28T12:09:14;51159.38;;;-145.42;53.35
49367;BME280;35245;52.026;8.540;2023-01-28T12:12:00;51131.63;;;-145.42;46.98
49367;BME280;35245;52.026;8.540;2023-01-28T12:15:01;51127.66;;;-145.42;46.11
49367;BME280;35245;52.026;8.540;2023-01-28T12:17:44;51105.84;;;-145.42;43.31
49367;BME280;35245;52.026;8.540;2023-01-28T12:20:21;51097.91;;;-145.42;42.76
49367;BME280;35245;52.026;8.540;2023-01-28T12:23:17;51048.38;;;-145.42;41.81
49367;BME280;35245;52.026;8.540;2023-01-28T12:25:59;51074.13;;;-145.42;42.29
49367;BME280;35245;52.026;8.540;2023-01-28T12:31:54;51093.97;;;-145.42;39.89
49367;BME280;35245;52.026;8.540;2023-01-28T12:35:01;51010.72;;;-145.42;38.78
49367;BME280;35245;52.026;8.540;2023-01-28T12:37:50;51012.69;;;-145.42;38.58
49367;BME280;35245;52.026;8.540;2023-01-28T12:40:42;51040.44;;;-145.42;37.64
49367;BME280;35245;52.026;8.540;2023-01-28T12:43:18;51040.44;;;-145.42;36.95
49367;BME280;35245;52.026;8.540;2023-01-28T12:45:52;51014.66;;;-145.42;35.54
49367;BME280;35245;52.026;8.540;2023-01-28T12:48:26;51004.75;;;-145.42;35.04
49367;BME280;35245;52.026;8.540;2023-01-28T12:51:02;50979.00;;;-145.42;33.71
49367;BME280;35245;52.026;8.540;2023-01-28T12:53:39;50990.88;;;-145.42;34.17
49367;BME280;35245;52.026;8.540;2023-01-28T12:56:14;51050.34;;;-145.42;33.41
49367;BME280;35245;52.026;8.540;2023-01-28T12:58:47;51046.38;;;-145.42;35.33
49367;BME280;35245;52.026;8.540;2023-01-28T13:01:22;51044.41;;;-145.42;37.93